sensor_id;sensor_type;location;lat;lon;timestamp;P1;durP1;ratioP1;P2;durP2;ratioP2
65189;SDS011;51777;53.570;9.984;2022-07-04T00:00:01;10.73;;;2.17;;
65189;SDS011;51777;53.570;9.984;2022-07-04T00:02:27;8.57;;;2.10;;
65189;SDS011;51777;53.570;9.984;2022-07-04T00:04:52;4.13;;;2.00;;
65189;SDS011;51777;53.570;9.984;2022-07-04T00:07:17;4.75;;;2.58;;
65189;SDS011;51777;53.570;9.984;2022-07-04T00:09:43;4.50;;;2.13;;
65189;SDS011;51777;53.570;9.984;2022-07-04T00:12:08;7.43;;;2.50;;
65189;SDS011;51777;53.570;9.984;2022-07-04T00:14:34;5.95;;;2.78;;
65189;SDS011;51777;53.570;9.984;2022-07-04T00:16:59;5.53;;;2.35;;
65189;SDS011;51777;53.570;9.984;2022-07-04T00:19:24;7.80;;;2.50;;
65189;SDS011;51777;53.570;9.984;2022-07-04T00:21:50;7.07;;;2.70;;
65189;SDS011;51777;53.570;9.984;2022-07-04T00:24:15;8.18;;;2.63;;
65189;SDS011;51777;53.570;9.984;2022-07-04T00:26:41;8.13;;;2.97;;
65189;SDS011;51777;53.570;9.984;2022-07-04T00:29:06;7.63;;;3.00;;
65189;SDS011;51777;53.570;9.984;2022-07-04T00:31:31;7.38;;;2.33;;
65189;SDS011;51777;53.570;9.984;2022-07-04T00:33:57;7.22;;;3.10;;
65189;SDS011;51777;53.570;9.984;2022-07-04T00:36:23;7.65;;;3.15;;
65189;SDS011;51777;53.570;9.984;2022-07-04T00:38:48;10.90;;;3.25;;
65189;SDS011;51777;53.570;9.984;2022-07-04T00:41:13;5.65;;;2.85;;
65189;SDS011;51777;53.570;9.984;2022-07-04T00:43:39;8.07;;;3.20;;
65189;SDS011;51777;53.570;9.984;2022-07-04T00:46:04;10.25;;;3.22;;
65189;SDS011;51777;53.570;9.984;2022-07-04T00:48:31;9.68;;;3.13;;
65189;SDS011;51777;53.570;9.984;2022-07-04T00:50:57;8.05;;;3.20;;
65189;SDS011;51777;53.570;9.984;2022-07-04T00:53:23;10.43;;;3.28;;
65189;SDS011;51777;53.570;9.984;2022-07-04T00:55:49;10.02;;;3.72;;
65189;SDS011;51777;53.570;9.984;2022-07-04T00:58:15;9.57;;;3.38;;
65189;SDS011;51777;53.570;9.984;2022-07-04T01:00:44;7.28;;;3.80;;
65189;SDS011;51777;53.570;9.984;2022-07-04T01:03:10;6.75;;;3.63;;
65189;SDS011;51777;53.570;9.984;2022-07-04T01:05:35;9.10;;;3.97;;
65189;SDS011;51777;53.570;9.984;2022-07-04T01:08:02;7.30;;;3.50;;
65189;SDS011;51777;53.570;9.984;2022-07-04T01:10:28;7.65;;;4.18;;
65189;SDS011;51777;53.570;9.984;2022-07-04T01:12:54;11.50;;;3.90;;
65189;SDS011;51777;53.570;9.984;2022-07-04T01:15:20;13.45;;;4.35;;
65189;SDS011;51777;53.570;9.984;2022-07-04T01:17:45;13.00;;;4.68;;
65189;SDS011;51777;53.570;9.984;2022-07-04T01:20:13;7.07;;;4.15;;
65189;SDS011;51777;53.570;9.984;2022-07-04T01:22:39;12.65;;;5.28;;
65189;SDS011;51777;53.570;9.984;2022-07-04T01:25:06;11.65;;;5.68;;
65189;SDS011;51777;53.570;9.984;2022-07-04T01:27:32;12.75;;;6.88;;
65189;SDS011;51777;53.570;9.984;2022-07-04T01:29:58;15.05;;;5.88;;
65189;SDS011;51777;53.570;9.984;2022-07-04T01:32:23;13.90;;;6.93;;
65189;SDS011;51777;53.570;9.984;2022-07-04T01:34:49;11.30;;;6.72;;
65189;SDS011;51777;53.570;9.984;2022-07-04T01:37:14;13.45;;;6.63;;
65189;SDS011;51777;53.570;9.984;2022-07-04T01:39:40;15.30;;;6.55;;
65189;SDS011;51777;53.570;9.984;2022-07-04T01:42:05;13.75;;;6.35;;
65189;SDS011;51777;53.570;9.984;2022-07-04T01:44:31;9.95;;;6.60;;
65189;SDS011;51777;53.570;9.984;2022-07-04T01:46:57;14.23;;;6.30;;
65189;SDS011;51777;53.570;9.984;2022-07-04T01:49:22;10.98;;;6.50;;
65189;SDS011;51777;53.570;9.984;2022-07-04T01:51:48;11.73;;;6.88;;
65189;SDS011;51777;53.570;9.984;2022-07-04T01:54:15;10.23;;;7.25;;
65189;SDS011;51777;53.570;9.984;2022-07-04T01:56:41;17.02;;;8.48;;
65189;SDS011;51777;53.570;9.984;2022-07-04T01:59:07;14.10;;;7.55;;
65189;SDS011;51777;53.570;9.984;2022-07-04T02:01:33;10.38;;;7.85;;
65189;SDS011;51777;53.570;9.984;2022-07-04T02:03:59;17.95;;;8.43;;
65189;SDS011;51777;53.570;9.984;2022-07-04T02:06:27;13.55;;;7.35;;
65189;SDS011;51777;53.570;9.984;2022-07-04T02:08:53;13.55;;;7.47;;
65189;SDS011;51777;53.570;9.984;2022-07-04T02:11:37;15.93;;;8.50;;
65189;SDS011;51777;53.570;9.984;2022-07-04T02:14:21;14.30;;;8.40;;
65189;SDS011;51777;53.570;9.984;2022-07-04T02:16:47;12.38;;;8.13;;
65189;SDS011;51777;53.570;9.984;2022-07-04T02:19:12;15.13;;;8.85;;
65189;SDS011;51777;53.570;9.984;2022-07-04T02:21:37;14.80;;;8.73;;
65189;SDS011;51777;53.570;9.984;2022-07-04T02:24:03;13.85;;;8.88;;
65189;SDS011;51777;53.570;9.984;2022-07-04T02:26:29;14.07;;;8.55;;
65189;SDS011;51777;53.570;9.984;2022-07-04T02:28:54;16.65;;;9.00;;
65189;SDS011;51777;53.570;9.984;2022-07-04T02:31:20;15.25;;;8.90;;
65189;SDS011;51777;53.570;9.984;2022-07-04T02:33:45;13.07;;;8.07;;
65189;SDS011;51777;53.570;9.984;2022-07-04T02:36:11;15.25;;;8.52;;
65189;SDS011;51777;53.570;9.984;2022-07-04T02:38:36;11.90;;;7.60;;
65189;SDS011;51777;53.570;9.984;2022-07-04T02:41:01;15.57;;;7.45;;
65189;SDS011;51777;53.570;9.984;2022-07-04T02:43:27;12.23;;;7.28;;
65189;SDS011;51777;53.570;9.984;2022-07-04T02:45:52;13.60;;;7.40;;
65189;SDS011;51777;53.570;9.984;2022-07-04T02:48:18;8.48;;;6.25;;
65189;SDS011;51777;53.570;9.984;2022-07-04T02:50:44;11.90;;;6.30;;
65189;SDS011;51777;53.570;9.984;2022-07-04T02:53:09;13.68;;;6.07;;
65189;SDS011;51777;53.570;9.984;2022-07-04T02:55:35;10.25;;;6.00;;
65189;SDS011;51777;53.570;9.984;2022-07-04T02:58:00;11.80;;;6.22;;
65189;SDS011;51777;53.570;9.984;2022-07-04T03:00:26;12.98;;;5.90;;
65189;SDS011;51777;53.570;9.984;2022-07-04T03:02:53;9.20;;;5.88;;
65189;SDS011;51777;53.570;9.984;2022-07-04T03:05:19;13.73;;;6.43;;
65189;SDS011;51777;53.570;9.984;2022-07-04T03:07:44;8.23;;;5.60;;
65189;SDS011;51777;53.570;9.984;2022-07-04T03:10:10;13.02;;;6.07;;
65189;SDS011;51777;53.570;9.984;2022-07-04T03:12:36;10.48;;;5.95;;
65189;SDS011;51777;53.570;9.984;2022-07-04T03:15:02;9.02;;;6.05;;
65189;SDS011;51777;53.570;9.984;2022-07-04T03:17:27;12.23;;;6.60;;
65189;SDS011;51777;53.570;9.984;2022-07-04T03:19:55;16.77;;;6.80;;
65189;SDS011;51777;53.570;9.984;2022-07-04T03:22:21;12.55;;;6.88;;
65189;SDS011;51777;53.570;9.984;2022-07-04T03:24:46;12.48;;;6.60;;
65189;SDS011;51777;53.570;9.984;2022-07-04T03:27:11;10.95;;;7.10;;
65189;SDS011;51777;53.570;9.984;2022-07-04T03:29:37;15.57;;;8.30;;
65189;SDS011;51777;53.570;9.984;2022-07-04T03:32:02;14.00;;;7.70;;
65189;SDS011;51777;53.570;9.984;2022-07-04T03:34:28;14.88;;;8.88;;
65189;SDS011;51777;53.570;9.984;2022-07-04T03:36:54;14.88;;;9.13;;
65189;SDS011;51777;53.570;9.984;2022-07-04T03:39:19;16.83;;;10.20;;
65189;SDS011;51777;53.570;9.984;2022-07-04T03:41:45;15.85;;;9.60;;
65189;SDS011;51777;53.570;9.984;2022-07-04T03:44:10;15.80;;;9.95;;
65189;SDS011;51777;53.570;9.984;2022-07-04T03:46:35;16.52;;;10.05;;
65189;SDS011;51777;53.570;9.984;2022-07-04T03:49:01;16.63;;;10.60;;
65189;SDS011;51777;53.570;9.984;2022-07-04T03:51:26;14.15;;;10.13;;
65189;SDS011;51777;53.570;9.984;2022-07-04T03:53:52;14.98;;;10.13;;
65189;SDS011;51777;53.570;9.984;2022-07-04T03:56:18;17.25;;;10.23;;
65189;SDS011;51777;53.570;9.984;2022-07-04T03:58:43;14.35;;;9.82;;
65189;SDS011;51777;53.570;9.984;2022-07-04T04:01:13;15.55;;;9.43;;
65189;SDS011;51777;53.570;9.984;2022-07-04T04:03:39;14.68;;;9.35;;
65189;SDS011;51777;53.570;9.984;2022-07-04T04:06:23;14.95;;;8.75;;
65189;SDS011;51777;53.570;9.984;2022-07-04T04:08:49;12.20;;;8.05;;
65189;SDS011;51777;53.570;9.984;2022-07-04T04:11:14;10.75;;;8.57;;
65189;SDS011;51777;53.570;9.984;2022-07-04T04:13:39;16.90;;;8.50;;
65189;SDS011;51777;53.570;9.984;2022-07-04T04:16:05;14.93;;;8.60;;
65189;SDS011;51777;53.570;9.984;2022-07-04T04:18:30;12.60;;;7.97;;
65189;SDS011;51777;53.570;9.984;2022-07-04T04:20:56;15.02;;;9.10;;
65189;SDS011;51777;53.570;9.984;2022-07-04T04:23:21;15.07;;;7.18;;
65189;SDS011;51777;53.570;9.984;2022-07-04T04:25:47;15.63;;;7.38;;
65189;SDS011;51777;53.570;9.984;2022-07-04T04:28:12;13.35;;;8.00;;
65189;SDS011;51777;53.570;9.984;2022-07-04T04:30:38;13.35;;;7.15;;
65189;SDS011;51777;53.570;9.984;2022-07-04T04:33:03;14.57;;;6.38;;
65189;SDS011;51777;53.570;9.984;2022-07-04T04:35:28;14.15;;;6.53;;
65189;SDS011;51777;53.570;9.984;2022-07-04T04:37:54;12.50;;;7.53;;
65189;SDS011;51777;53.570;9.984;2022-07-04T04:40:19;14.00;;;7.05;;
65189;SDS011;51777;53.570;9.984;2022-07-04T04:42:45;14.65;;;7.25;;
65189;SDS011;51777;53.570;9.984;2022-07-04T04:45:10;15.48;;;7.90;;
65189;SDS011;51777;53.570;9.984;2022-07-04T04:47:35;13.32;;;7.18;;
65189;SDS011;51777;53.570;9.984;2022-07-04T04:50:01;12.60;;;7.13;;
65189;SDS011;51777;53.570;9.984;2022-07-04T04:52:26;10.38;;;6.47;;
65189;SDS011;51777;53.570;9.984;2022-07-04T04:54:52;10.02;;;6.90;;
65189;SDS011;51777;53.570;9.984;2022-07-04T04:57:17;11.48;;;6.65;;
65189;SDS011;51777;53.570;9.984;2022-07-04T04:59:43;9.60;;;6.20;;
65189;SDS011;51777;53.570;9.984;2022-07-04T05:02:08;10.80;;;5.78;;
65189;SDS011;51777;53.570;9.984;2022-07-04T05:04:34;11.10;;;5.20;;
65189;SDS011;51777;53.570;9.984;2022-07-04T05:06:59;12.32;;;5.75;;
65189;SDS011;51777;53.570;9.984;2022-07-04T05:09:25;7.72;;;5.07;;
65189;SDS011;51777;53.570;9.984;2022-07-04T05:11:51;8.48;;;4.65;;
65189;SDS011;51777;53.570;9.984;2022-07-04T05:14:16;9.55;;;4.72;;
65189;SDS011;51777;53.570;9.984;2022-07-04T05:16:42;7.22;;;4.38;;
65189;SDS011;51777;53.570;9.984;2022-07-04T05:19:08;12.02;;;4.65;;
65189;SDS011;51777;53.570;9.984;2022-07-04T05:21:33;8.90;;;4.47;;
65189;SDS011;51777;53.570;9.984;2022-07-04T05:23:59;8.68;;;4.00;;
65189;SDS011;51777;53.570;9.984;2022-07-04T05:26:25;9.98;;;4.20;;
65189;SDS011;51777;53.570;9.984;2022-07-04T05:28:51;9.23;;;3.75;;
65189;SDS011;51777;53.570;9.984;2022-07-04T05:31:16;7.13;;;3.45;;
65189;SDS011;51777;53.570;9.984;2022-07-04T05:33:42;6.82;;;3.00;;
65189;SDS011;51777;53.570;9.984;2022-07-04T05:36:08;6.45;;;2.92;;
65189;SDS011;51777;53.570;9.984;2022-07-04T05:38:33;4.40;;;2.50;;
65189;SDS011;51777;53.570;9.984;2022-07-04T05:40:59;5.35;;;2.33;;
65189;SDS011;51777;53.570;9.984;2022-07-04T05:43:24;6.10;;;2.58;;
65189;SDS011;51777;53.570;9.984;2022-07-04T05:45:50;6.20;;;2.60;;
65189;SDS011;51777;53.570;9.984;2022-07-04T05:48:16;5.20;;;2.30;;
65189;SDS011;51777;53.570;9.984;2022-07-04T05:50:42;4.78;;;2.28;;
65189;SDS011;51777;53.570;9.984;2022-07-04T05:53:07;7.22;;;2.40;;
65189;SDS011;51777;53.570;9.984;2022-07-04T05:55:33;7.32;;;2.35;;
65189;SDS011;51777;53.570;9.984;2022-07-04T05:57:59;6.25;;;2.20;;
65189;SDS011;51777;53.570;9.984;2022-07-04T06:00:25;5.78;;;2.08;;
65189;SDS011;51777;53.570;9.984;2022-07-04T06:02:50;7.45;;;2.00;;
65189;SDS011;51777;53.570;9.984;2022-07-04T06:05:16;3.95;;;1.80;;
65189;SDS011;51777;53.570;9.984;2022-07-04T06:07:41;3.25;;;1.50;;
65189;SDS011;51777;53.570;9.984;2022-07-04T06:10:07;5.75;;;2.00;;
65189;SDS011;51777;53.570;9.984;2022-07-04T06:12:33;6.97;;;1.67;;
65189;SDS011;51777;53.570;9.984;2022-07-04T06:14:59;5.07;;;1.80;;
65189;SDS011;51777;53.570;9.984;2022-07-04T06:17:24;5.93;;;1.50;;
65189;SDS011;51777;53.570;9.984;2022-07-04T06:19:50;9.95;;;1.80;;
65189;SDS011;51777;53.570;9.984;2022-07-04T06:22:15;11.68;;;1.80;;
65189;SDS011;51777;53.570;9.984;2022-07-04T06:24:41;6.80;;;1.48;;
65189;SDS011;51777;53.570;9.984;2022-07-04T06:27:06;3.80;;;1.52;;
65189;SDS011;51777;53.570;9.984;2022-07-04T06:29:32;5.70;;;1.58;;
65189;SDS011;51777;53.570;9.984;2022-07-04T06:31:58;4.35;;;1.30;;
65189;SDS011;51777;53.570;9.984;2022-07-04T06:34:23;7.97;;;1.90;;
65189;SDS011;51777;53.570;9.984;2022-07-04T06:37:07;4.72;;;1.60;;
65189;SDS011;51777;53.570;9.984;2022-07-04T06:39:33;8.02;;;1.60;;
65189;SDS011;51777;53.570;9.984;2022-07-04T06:41:58;3.90;;;1.27;;
65189;SDS011;51777;53.570;9.984;2022-07-04T06:44:24;5.45;;;1.63;;
65189;SDS011;51777;53.570;9.984;2022-07-04T06:46:49;9.00;;;1.70;;
65189;SDS011;51777;53.570;9.984;2022-07-04T06:49:17;2.92;;;1.50;;
65189;SDS011;51777;53.570;9.984;2022-07-04T06:51:42;4.47;;;1.35;;
65189;SDS011;51777;53.570;9.984;2022-07-04T06:54:07;3.97;;;1.40;;
65189;SDS011;51777;53.570;9.984;2022-07-04T06:56:33;5.30;;;1.75;;
65189;SDS011;51777;53.570;9.984;2022-07-04T06:58:58;8.40;;;1.42;;
65189;SDS011;51777;53.570;9.984;2022-07-04T07:01:24;3.75;;;1.30;;
65189;SDS011;51777;53.570;9.984;2022-07-04T07:03:50;9.73;;;1.70;;
65189;SDS011;51777;53.570;9.984;2022-07-04T07:06:15;5.85;;;1.52;;
65189;SDS011;51777;53.570;9.984;2022-07-04T07:08:41;4.53;;;1.40;;
65189;SDS011;51777;53.570;9.984;2022-07-04T07:11:06;4.05;;;1.20;;
65189;SDS011;51777;53.570;9.984;2022-07-04T07:13:42;3.90;;;1.40;;
65189;SDS011;51777;53.570;9.984;2022-07-04T07:16:09;4.25;;;1.20;;
65189;SDS011;51777;53.570;9.984;2022-07-04T07:18:35;2.75;;;1.15;;
65189;SDS011;51777;53.570;9.984;2022-07-04T07:21:01;5.75;;;1.10;;
65189;SDS011;51777;53.570;9.984;2022-07-04T07:23:27;5.10;;;1.20;;
65189;SDS011;51777;53.570;9.984;2022-07-04T07:25:53;4.95;;;1.20;;
65189;SDS011;51777;53.570;9.984;2022-07-04T07:28:18;3.13;;;1.17;;
65189;SDS011;51777;53.570;9.984;2022-07-04T07:30:44;7.30;;;1.02;;
65189;SDS011;51777;53.570;9.984;2022-07-04T07:33:09;2.95;;;0.95;;
65189;SDS011;51777;53.570;9.984;2022-07-04T07:35:35;3.78;;;1.10;;
65189;SDS011;51777;53.570;9.984;2022-07-04T07:38:02;5.55;;;1.38;;
65189;SDS011;51777;53.570;9.984;2022-07-04T07:40:27;4.22;;;1.13;;
65189;SDS011;51777;53.570;9.984;2022-07-04T07:42:53;4.70;;;0.93;;
65189;SDS011;51777;53.570;9.984;2022-07-04T07:45:20;4.10;;;1.00;;
65189;SDS011;51777;53.570;9.984;2022-07-04T07:47:46;3.17;;;1.08;;
65189;SDS011;51777;53.570;9.984;2022-07-04T07:50:12;3.72;;;0.90;;
65189;SDS011;51777;53.570;9.984;2022-07-04T07:52:38;2.75;;;0.90;;
65189;SDS011;51777;53.570;9.984;2022-07-04T07:55:04;5.15;;;1.02;;
65189;SDS011;51777;53.570;9.984;2022-07-04T07:57:30;2.85;;;1.08;;
65189;SDS011;51777;53.570;9.984;2022-07-04T07:59:56;4.30;;;1.20;;
65189;SDS011;51777;53.570;9.984;2022-07-04T08:02:21;3.45;;;0.90;;
65189;SDS011;51777;53.570;9.984;2022-07-04T08:05:07;5.85;;;1.20;;
65189;SDS011;51777;53.570;9.984;2022-07-04T08:07:33;5.00;;;1.10;;
65189;SDS011;51777;53.570;9.984;2022-07-04T08:09:59;7.60;;;1.08;;
65189;SDS011;51777;53.570;9.984;2022-07-04T08:12:24;2.67;;;0.93;;
65189;SDS011;51777;53.570;9.984;2022-07-04T08:14:50;4.15;;;0.95;;
65189;SDS011;51777;53.570;9.984;2022-07-04T08:17:15;5.90;;;1.00;;
65189;SDS011;51777;53.570;9.984;2022-07-04T08:19:41;2.67;;;0.70;;
65189;SDS011;51777;53.570;9.984;2022-07-04T08:22:06;8.88;;;1.67;;
65189;SDS011;51777;53.570;9.984;2022-07-04T08:24:32;3.40;;;1.00;;
65189;SDS011;51777;53.570;9.984;2022-07-04T08:26:57;2.45;;;0.90;;
65189;SDS011;51777;53.570;9.984;2022-07-04T08:29:24;3.58;;;1.08;;
65189;SDS011;51777;53.570;9.984;2022-07-04T08:31:51;3.80;;;1.02;;
65189;SDS011;51777;53.570;9.984;2022-07-04T08:34:17;4.78;;;1.00;;
65189;SDS011;51777;53.570;9.984;2022-07-04T08:36:42;4.93;;;1.10;;
65189;SDS011;51777;53.570;9.984;2022-07-04T08:39:08;4.25;;;0.90;;
65189;SDS011;51777;53.570;9.984;2022-07-04T08:41:37;3.03;;;0.82;;
65189;SDS011;51777;53.570;9.984;2022-07-04T08:44:05;4.50;;;0.90;;
65189;SDS011;51777;53.570;9.984;2022-07-04T08:46:32;4.95;;;0.93;;
65189;SDS011;51777;53.570;9.984;2022-07-04T08:49:01;1.95;;;0.70;;
65189;SDS011;51777;53.570;9.984;2022-07-04T08:51:37;2.58;;;0.60;;
65189;SDS011;51777;53.570;9.984;2022-07-04T08:54:08;3.25;;;0.80;;
65189;SDS011;51777;53.570;9.984;2022-07-04T08:56:54;1.52;;;0.80;;
65189;SDS011;51777;53.570;9.984;2022-07-04T08:59:39;2.70;;;0.70;;
65189;SDS011;51777;53.570;9.984;2022-07-04T09:02:05;3.58;;;0.50;;
65189;SDS011;51777;53.570;9.984;2022-07-04T09:04:32;2.83;;;0.80;;
65189;SDS011;51777;53.570;9.984;2022-07-04T09:06:58;3.60;;;0.85;;
65189;SDS011;51777;53.570;9.984;2022-07-04T09:09:24;1.98;;;0.73;;
65189;SDS011;51777;53.570;9.984;2022-07-04T09:11:50;2.33;;;0.70;;
65189;SDS011;51777;53.570;9.984;2022-07-04T09:14:16;3.22;;;0.80;;
65189;SDS011;51777;53.570;9.984;2022-07-04T09:16:41;3.63;;;1.00;;
65189;SDS011;51777;53.570;9.984;2022-07-04T09:19:18;3.00;;;0.80;;
65189;SDS011;51777;53.570;9.984;2022-07-04T09:21:47;3.97;;;0.68;;
65189;SDS011;51777;53.570;9.984;2022-07-04T09:24:13;2.45;;;0.75;;
65189;SDS011;51777;53.570;9.984;2022-07-04T09:26:46;2.80;;;0.93;;
65189;SDS011;51777;53.570;9.984;2022-07-04T09:29:12;1.05;;;0.52;;
65189;SDS011;51777;53.570;9.984;2022-07-04T09:31:38;5.20;;;0.80;;
65189;SDS011;51777;53.570;9.984;2022-07-04T09:34:05;2.92;;;0.80;;
65189;SDS011;51777;53.570;9.984;2022-07-04T09:36:40;4.35;;;0.88;;
65189;SDS011;51777;53.570;9.984;2022-07-04T09:39:10;6.13;;;0.80;;
65189;SDS011;51777;53.570;9.984;2022-07-04T09:47:00;3.35;;;0.80;;
65189;SDS011;51777;53.570;9.984;2022-07-04T09:52:49;3.72;;;0.95;;
65189;SDS011;51777;53.570;9.984;2022-07-04T09:55:36;3.65;;;0.90;;
65189;SDS011;51777;53.570;9.984;2022-07-04T09:58:12;1.92;;;0.70;;
65189;SDS011;51777;53.570;9.984;2022-07-04T10:00:40;3.53;;;0.82;;
65189;SDS011;51777;53.570;9.984;2022-07-04T10:03:20;2.35;;;0.68;;
65189;SDS011;51777;53.570;9.984;2022-07-04T10:06:01;2.15;;;0.63;;
65189;SDS011;51777;53.570;9.984;2022-07-04T10:08:28;7.10;;;0.85;;
65189;SDS011;51777;53.570;9.984;2022-07-04T10:11:00;2.03;;;0.55;;
65189;SDS011;51777;53.570;9.984;2022-07-04T10:13:27;4.88;;;0.60;;
65189;SDS011;51777;53.570;9.984;2022-07-04T10:15:55;4.85;;;0.85;;
65189;SDS011;51777;53.570;9.984;2022-07-04T10:18:23;2.47;;;0.73;;
65189;SDS011;51777;53.570;9.984;2022-07-04T10:20:49;2.65;;;0.80;;
65189;SDS011;51777;53.570;9.984;2022-07-04T10:23:16;3.10;;;0.70;;
65189;SDS011;51777;53.570;9.984;2022-07-04T10:25:48;4.22;;;0.70;;
65189;SDS011;51777;53.570;9.984;2022-07-04T10:28:14;2.38;;;0.70;;
65189;SDS011;51777;53.570;9.984;2022-07-04T10:30:40;3.92;;;0.85;;
65189;SDS011;51777;53.570;9.984;2022-07-04T10:33:07;4.10;;;0.57;;
65189;SDS011;51777;53.570;9.984;2022-07-04T10:35:47;2.38;;;0.60;;
65189;SDS011;51777;53.570;9.984;2022-07-04T10:38:19;3.95;;;0.90;;
65189;SDS011;51777;53.570;9.984;2022-07-04T10:40:47;3.00;;;1.00;;
65189;SDS011;51777;53.570;9.984;2022-07-04T10:51:16;3.00;;;0.70;;
65189;SDS011;51777;53.570;9.984;2022-07-04T10:59:36;2.20;;;0.52;;
65189;SDS011;51777;53.570;9.984;2022-07-04T11:04:55;3.10;;;0.70;;
65189;SDS011;51777;53.570;9.984;2022-07-04T11:18:07;2.33;;;0.70;;
65189;SDS011;51777;53.570;9.984;2022-07-04T11:20:34;7.57;;;1.00;;
65189;SDS011;51777;53.570;9.984;2022-07-04T11:25:30;2.38;;;0.70;;
65189;SDS011;51777;53.570;9.984;2022-07-04T11:27:56;4.22;;;1.08;;
65189;SDS011;51777;53.570;9.984;2022-07-04T11:30:22;1.95;;;0.70;;
65189;SDS011;51777;53.570;9.984;2022-07-04T11:32:47;3.88;;;0.88;;
65189;SDS011;51777;53.570;9.984;2022-07-04T11:35:13;3.42;;;0.70;;
65189;SDS011;51777;53.570;9.984;2022-07-04T11:37:38;4.07;;;0.80;;
65189;SDS011;51777;53.570;9.984;2022-07-04T11:40:04;3.25;;;0.80;;
65189;SDS011;51777;53.570;9.984;2022-07-04T11:45:51;4.07;;;0.63;;
65189;SDS011;51777;53.570;9.984;2022-07-04T11:48:24;3.80;;;0.90;;
65189;SDS011;51777;53.570;9.984;2022-07-04T11:50:51;2.47;;;0.70;;
65189;SDS011;51777;53.570;9.984;2022-07-04T11:53:18;2.53;;;0.70;;
65189;SDS011;51777;53.570;9.984;2022-07-04T11:55:54;2.28;;;0.80;;
65189;SDS011;51777;53.570;9.984;2022-07-04T11:58:21;3.38;;;0.73;;
65189;SDS011;51777;53.570;9.984;2022-07-04T12:00:47;4.75;;;0.95;;
65189;SDS011;51777;53.570;9.984;2022-07-04T12:03:13;1.60;;;0.60;;
65189;SDS011;51777;53.570;9.984;2022-07-04T12:05:38;1.85;;;0.80;;
65189;SDS011;51777;53.570;9.984;2022-07-04T12:08:04;5.82;;;0.70;;
65189;SDS011;51777;53.570;9.984;2022-07-04T12:10:33;1.40;;;0.60;;
65189;SDS011;51777;53.570;9.984;2022-07-04T12:12:59;2.13;;;0.60;;
65189;SDS011;51777;53.570;9.984;2022-07-04T12:15:37;0.82;;;0.43;;
65189;SDS011;51777;53.570;9.984;2022-07-04T12:18:04;4.60;;;0.90;;
65189;SDS011;51777;53.570;9.984;2022-07-04T12:20:31;4.88;;;0.90;;
65189;SDS011;51777;53.570;9.984;2022-07-04T12:23:00;2.20;;;0.75;;
65189;SDS011;51777;53.570;9.984;2022-07-04T12:25:33;3.50;;;0.60;;
65189;SDS011;51777;53.570;9.984;2022-07-04T12:28:04;3.22;;;0.65;;
65189;SDS011;51777;53.570;9.984;2022-07-04T12:30:35;3.50;;;0.60;;
65189;SDS011;51777;53.570;9.984;2022-07-04T12:33:03;4.07;;;0.70;;
65189;SDS011;51777;53.570;9.984;2022-07-04T12:38:10;2.20;;;0.85;;
65189;SDS011;51777;53.570;9.984;2022-07-04T12:40:49;5.10;;;0.82;;
65189;SDS011;51777;53.570;9.984;2022-07-04T12:43:43;1.83;;;0.90;;
65189;SDS011;51777;53.570;9.984;2022-07-04T12:48:38;5.07;;;0.73;;
65189;SDS011;51777;53.570;9.984;2022-07-04T12:51:14;4.50;;;1.00;;
65189;SDS011;51777;53.570;9.984;2022-07-04T12:53:43;2.88;;;0.80;;
65189;SDS011;51777;53.570;9.984;2022-07-04T12:56:10;3.05;;;0.95;;
65189;SDS011;51777;53.570;9.984;2022-07-04T12:58:56;6.07;;;0.90;;
65189;SDS011;51777;53.570;9.984;2022-07-04T13:01:22;6.50;;;1.00;;
65189;SDS011;51777;53.570;9.984;2022-07-04T13:03:48;2.92;;;0.88;;
65189;SDS011;51777;53.570;9.984;2022-07-04T13:06:13;1.80;;;0.77;;
65189;SDS011;51777;53.570;9.984;2022-07-04T13:08:38;2.30;;;0.65;;
65189;SDS011;51777;53.570;9.984;2022-07-04T13:11:04;2.95;;;0.70;;
65189;SDS011;51777;53.570;9.984;2022-07-04T13:13:48;2.05;;;0.63;;
65189;SDS011;51777;53.570;9.984;2022-07-04T13:16:14;2.55;;;0.90;;
65189;SDS011;51777;53.570;9.984;2022-07-04T13:18:40;1.73;;;0.80;;
65189;SDS011;51777;53.570;9.984;2022-07-04T13:21:05;2.88;;;0.70;;
65189;SDS011;51777;53.570;9.984;2022-07-04T13:23:31;5.95;;;0.82;;
65189;SDS011;51777;53.570;9.984;2022-07-04T13:25:56;3.42;;;0.80;;
65189;SDS011;51777;53.570;9.984;2022-07-04T13:28:22;5.10;;;0.93;;
65189;SDS011;51777;53.570;9.984;2022-07-04T13:30:47;2.70;;;0.80;;
65189;SDS011;51777;53.570;9.984;2022-07-04T13:33:12;3.50;;;0.73;;
65189;SDS011;51777;53.570;9.984;2022-07-04T13:35:38;5.43;;;0.80;;
65189;SDS011;51777;53.570;9.984;2022-07-04T13:38:03;2.35;;;0.80;;
65189;SDS011;51777;53.570;9.984;2022-07-04T13:40:29;2.28;;;0.70;;
65189;SDS011;51777;53.570;9.984;2022-07-04T13:42:54;5.07;;;0.90;;
65189;SDS011;51777;53.570;9.984;2022-07-04T13:45:24;3.97;;;1.00;;
65189;SDS011;51777;53.570;9.984;2022-07-04T13:47:53;2.92;;;0.80;;
65189;SDS011;51777;53.570;9.984;2022-07-04T13:50:19;9.27;;;1.33;;
65189;SDS011;51777;53.570;9.984;2022-07-04T13:52:45;4.05;;;0.90;;
65189;SDS011;51777;53.570;9.984;2022-07-04T13:55:10;4.10;;;1.20;;
65189;SDS011;51777;53.570;9.984;2022-07-04T13:57:36;2.75;;;1.02;;
65189;SDS011;51777;53.570;9.984;2022-07-04T14:00:06;2.15;;;1.10;;
65189;SDS011;51777;53.570;9.984;2022-07-04T14:02:32;6.25;;;1.00;;
65189;SDS011;51777;53.570;9.984;2022-07-04T14:04:58;2.30;;;0.95;;
65189;SDS011;51777;53.570;9.984;2022-07-04T14:07:24;3.42;;;1.20;;
65189;SDS011;51777;53.570;9.984;2022-07-04T14:09:49;3.95;;;0.80;;
65189;SDS011;51777;53.570;9.984;2022-07-04T14:12:15;2.83;;;0.77;;
65189;SDS011;51777;53.570;9.984;2022-07-04T14:14:40;6.78;;;1.10;;
65189;SDS011;51777;53.570;9.984;2022-07-04T14:17:06;3.25;;;1.08;;
65189;SDS011;51777;53.570;9.984;2022-07-04T14:19:32;12.57;;;1.35;;
65189;SDS011;51777;53.570;9.984;2022-07-04T14:21:57;5.40;;;1.10;;
65189;SDS011;51777;53.570;9.984;2022-07-04T14:24:23;4.15;;;1.02;;
65189;SDS011;51777;53.570;9.984;2022-07-04T14:26:50;6.90;;;1.00;;
65189;SDS011;51777;53.570;9.984;2022-07-04T14:29:19;4.03;;;1.02;;
65189;SDS011;51777;53.570;9.984;2022-07-04T14:31:45;4.72;;;1.80;;
65189;SDS011;51777;53.570;9.984;2022-07-04T14:34:10;3.22;;;1.00;;
65189;SDS011;51777;53.570;9.984;2022-07-04T14:36:39;5.03;;;1.13;;
65189;SDS011;51777;53.570;9.984;2022-07-04T14:39:06;3.38;;;1.10;;
65189;SDS011;51777;53.570;9.984;2022-07-04T14:41:32;2.10;;;1.02;;
65189;SDS011;51777;53.570;9.984;2022-07-04T14:43:57;10.32;;;1.77;;
65189;SDS011;51777;53.570;9.984;2022-07-04T14:46:23;1.90;;;0.95;;
65189;SDS011;51777;53.570;9.984;2022-07-04T14:48:49;3.13;;;1.20;;
65189;SDS011;51777;53.570;9.984;2022-07-04T14:51:15;3.35;;;0.98;;
65189;SDS011;51777;53.570;9.984;2022-07-04T14:53:41;7.00;;;0.90;;
65189;SDS011;51777;53.570;9.984;2022-07-04T14:56:07;3.35;;;0.88;;
65189;SDS011;51777;53.570;9.984;2022-07-04T14:58:32;6.38;;;1.23;;
65189;SDS011;51777;53.570;9.984;2022-07-04T15:00:57;6.10;;;0.80;;
65189;SDS011;51777;53.570;9.984;2022-07-04T15:03:23;7.35;;;0.90;;
65189;SDS011;51777;53.570;9.984;2022-07-04T15:05:48;7.40;;;0.80;;
65189;SDS011;51777;53.570;9.984;2022-07-04T15:08:14;3.88;;;0.70;;
65189;SDS011;51777;53.570;9.984;2022-07-04T15:10:39;4.00;;;1.00;;
65189;SDS011;51777;53.570;9.984;2022-07-04T15:13:05;4.05;;;1.20;;
65189;SDS011;51777;53.570;9.984;2022-07-04T15:15:31;3.40;;;0.95;;
65189;SDS011;51777;53.570;9.984;2022-07-04T15:17:56;2.28;;;0.80;;
65189;SDS011;51777;53.570;9.984;2022-07-04T15:20:22;4.15;;;0.90;;
65189;SDS011;51777;53.570;9.984;2022-07-04T15:23:06;5.93;;;1.00;;
65189;SDS011;51777;53.570;9.984;2022-07-04T15:25:50;4.05;;;1.20;;
65189;SDS011;51777;53.570;9.984;2022-07-04T15:28:15;2.50;;;0.70;;